WetterOnline ( https://www.wetteronline.ch )

Wetter aktuell St. Wendel

Aktuelles Wetter: Tholey (398m)

6-stündlich | Neueste Meldungen
Ortszeit Temperatur Wetter
Di, 19.11. 7:00 3.1° C bedeckt
Di, 19.11. 1:00 3.3° C Sprühregen
Mo, 18.11. 19:00 1.1° C Schneeregen
Mo, 18.11. 13:00 1.7° C Sprühregen
Mo, 18.11. 7:00 2.4° C bewölkt
Mo, 18.11. 1:00 2.7° C Sprühregen
So, 17.11. 19:00 4.1° C leichter Regen
So, 17.11. 13:00 4.9° C wolkig
Ortszeit Temperatur Wetter
Di, 19.11. 10:30 4.0° C leicht bewölkt
Di, 19.11. 10:20 4.0° C leicht bewölkt
Di, 19.11. 10:10 3.9° C leicht bewölkt
Di, 19.11. 10:00 3.2° C wolkenlos
Di, 19.11. 9:50 3.2° C wolkenlos
Di, 19.11. 9:40 2.7° C wolkenlos
Di, 19.11. 9:30 2.6° C leicht bewölkt
Di, 19.11. 9:00 3.1° C bedeckt
Di, 19.11. 8:30 2.7° C Nebel
Di, 19.11. 8:00 3.0° C bedeckt
Di, 19.11. 7:30 3.0° C Nebel
Ortszeit Relative Feuchte Sichtweite
Di, 19.11. 7:00 99% 8 km
Di, 19.11. 1:00 100% 100 m
Mo, 18.11. 19:00 99% 3.7 km
Mo, 18.11. 13:00 99% 5.0 km
Mo, 18.11. 7:00 94% 11 km
Mo, 18.11. 1:00 95% 3.6 km
So, 17.11. 19:00 87% 27 km
So, 17.11. 13:00 83% 30 km
Ortszeit Relative Feuchte Sichtweite
Di, 19.11. 10:30 89% 23 km
Di, 19.11. 10:20 89% -
Di, 19.11. 10:10 87% -
Di, 19.11. 10:00 93% 14 km
Di, 19.11. 9:50 93% -
Di, 19.11. 9:40 97% -
Di, 19.11. 9:30 97% 18 km
Di, 19.11. 9:00 95% 29 km
Di, 19.11. 8:30 99% 0.6 km
Di, 19.11. 8:00 97% 16 km
Di, 19.11. 7:30 100% 0.3 km
Ortszeit Niederschlagsmenge Niederschlagsart
Di, 19.11. 7:00 3 l/m2 in 12 Std. Regen
Di, 19.11. 1:00 2 l/m2 in 6 Std. Schnee, Regen
Mo, 18.11. 19:00 2 l/m2 in 12 Std. Schnee, Regen
Mo, 18.11. 13:00 0.9 l/m2 in 6 Std. Schnee, Regen
Mo, 18.11. 7:00 1 l/m2 in 12 Std. Regen
Mo, 18.11. 1:00 0.9 l/m2 in 6 Std. Regen
So, 17.11. 19:00 0.8 l/m2 in 12 Std. Regen
So, 17.11. 13:00 0.0 l/m2 in 6 Std. -
Ortszeit Niederschlagsmenge Niederschlagsart
Di, 19.11. 10:30 0.0 l/m2 in 1 Std. -
Di, 19.11. 10:20 keine Meldung -
Di, 19.11. 10:10 keine Meldung -
Di, 19.11. 10:00 0.0 l/m2 in 1 Std. -
Di, 19.11. 9:50 keine Meldung -
Di, 19.11. 9:40 keine Meldung -
Di, 19.11. 9:30 0.0 l/m2 in 1 Std. -
Di, 19.11. 9:00 0.0 l/m2 in 1 Std. -
Di, 19.11. 8:30 0.0 l/m2 in 1 Std. -
Di, 19.11. 8:00 0.0 l/m2 in 1 Std. -
Di, 19.11. 7:30 0.0 l/m2 in 1 Std. -
Ortszeit Stärke Spitze Richtung
km/h Bft. km/h Grad Sektor
Di, 19.11. 7:00 7 2 22 300° NW
Di, 19.11. 1:00 11 2 29 250° W
Mo, 18.11. 19:00 24 4 35 250° W
Mo, 18.11. 13:00 17 3 22 250° W
Mo, 18.11. 7:00 4 1 18 320° NW
Mo, 18.11. 1:00 7 2 32 320° NW
So, 17.11. 19:00 18 3 36 20° N
So, 17.11. 13:00 11 2 29 60° NO
Ortszeit Stärke Spitze Richtung
km/h Bft. km/h Grad Sektor
Di, 19.11. 10:30 7 2 14 260° W
Di, 19.11. 10:20 7 2 - 260° W
Di, 19.11. 10:10 6 1 - 250° W
Di, 19.11. 10:00 7 2 11 250° W
Di, 19.11. 9:50 7 2 - 250° W
Di, 19.11. 9:40 7 2 - 250° W
Di, 19.11. 9:30 7 2 11 270° W
Di, 19.11. 9:00 9 2 17 300° NW
Di, 19.11. 8:30 6 1 13 250° W
Di, 19.11. 8:00 4 1 7 310° NW
Di, 19.11. 7:30 4 1 7 260° W
Ortszeit Untergrenze Bedeckung Gattung
total tief tief mittel hoch
Di, 19.11. 7:00 1320 m 8/8 8/8 - - -
Di, 19.11. 1:00 <30 m 8/8 0/8 - - -
Mo, 18.11. 19:00 60 m 8/8 8/8 - - -
Mo, 18.11. 13:00 60 m 8/8 8/8 - - -
Mo, 18.11. 7:00 330 m 7/8 7/8 - - -
Mo, 18.11. 1:00 240 m 7/8 7/8 - - -
So, 17.11. 19:00 630 m 8/8 8/8 - - -
So, 17.11. 13:00 2100 m 8/8 2/8 - - -
Ortszeit Bedeckungsgrad in Achtel und Wolkenuntergrenze
Di, 19.11. 10:30 3(210m)
Di, 19.11. 10:20 3(210m)
Di, 19.11. 10:10 2(210m)
Di, 19.11. 10:00 keine Wolken
Di, 19.11. 9:50 keine Wolken
Di, 19.11. 9:40 keine Wolken
Di, 19.11. 9:30 1(420m) 3(1500m)
Di, 19.11. 9:00 4(450m) 8(1500m)
Di, 19.11. 8:30 1(<30m) 7(1500m)
Di, 19.11. 8:00 3(450m) 8(1500m) 8(1500m)
Di, 19.11. 7:30 4(<30m) 7(390m) 8(1500m)
Ortszeit Luftdruck NN (hPa) Tendenz (hPa in 3 Std.)
Di, 19.11. 7:00 1017 + 0,9
Di, 19.11. 1:00 1015 + 1,2
Mo, 18.11. 19:00 1012 + 1,5
Mo, 18.11. 13:00 1009 + 0,6
Mo, 18.11. 7:00 1006 + 1,1
Mo, 18.11. 1:00 1005 0,0
So, 17.11. 19:00 1005 - 0,8
So, 17.11. 13:00 1008 - 1,4
Ortszeit Luftdruck NN (hPa) Tendenz (hPa in 3 Std.)
Di, 19.11. 10:30 1019 + 1,6
Di, 19.11. 10:20 1019 keine Meldung
Di, 19.11. 10:10 1018 keine Meldung
Di, 19.11. 10:00 1018 + 1,5
Di, 19.11. 9:50 1018 keine Meldung
Di, 19.11. 9:40 1018 keine Meldung
Di, 19.11. 9:30 1018 + 1,5
Di, 19.11. 9:00 1018 + 1,5
Di, 19.11. 8:30 1018 + 1,4
Di, 19.11. 8:00 1017 + 1,1
Di, 19.11. 7:30 1017 + 1,0
Ortszeit Schneehöhe (cm)
Di, 19.11. 7:00 0
Di, 19.11. 1:00 0
Mo, 18.11. 19:00 0
Mo, 18.11. 13:00 0
Mo, 18.11. 7:00 0
Mo, 18.11. 1:00 0
So, 17.11. 19:00 0
So, 17.11. 13:00 0
Ortszeit Schneehöhe (cm)
Di, 19.11. 10:30 0
Di, 19.11. 10:20 0
Di, 19.11. 10:10 0
Di, 19.11. 10:00 0
Di, 19.11. 9:50 0
Di, 19.11. 9:40 0
Di, 19.11. 9:30 0
Di, 19.11. 9:00 0
Di, 19.11. 8:30 0
Di, 19.11. 8:00 0
Di, 19.11. 7:30 0
Link zu dieser Seite / Seite empfehlen

Das Wetter in ...